createdAt,value
2017-06-26T00:00:37.440Z,0
2017-06-26T00:01:37.353Z,0
2017-06-26T00:02:37.449Z,0
2017-06-26T00:03:37.445Z,0
2017-06-26T00:04:37.437Z,0
2017-06-26T00:05:37.442Z,0
2017-06-26T00:06:37.357Z,0
2017-06-26T00:07:37.452Z,0
2017-06-26T00:08:37.509Z,0
2017-06-26T00:09:37.422Z,0
2017-06-26T00:10:37.449Z,0
2017-06-26T00:11:37.363Z,0
2017-06-26T00:12:37.408Z,0
2017-06-26T00:13:37.364Z,0
2017-06-26T00:14:37.451Z,0
2017-06-26T00:15:37.424Z,0
2017-06-26T00:16:37.362Z,0
2017-06-26T00:17:37.427Z,0
2017-06-26T00:18:37.453Z,0
2017-06-26T00:19:37.366Z,0
2017-06-26T00:20:37.412Z,0
2017-06-26T00:21:37.444Z,0
2017-06-26T00:22:37.449Z,0
2017-06-26T00:23:37.370Z,0
2017-06-26T00:24:37.361Z,0
2017-06-26T00:25:37.463Z,0
2017-06-26T00:26:37.415Z,0
2017-06-26T00:27:37.454Z,0
2017-06-26T00:28:37.508Z,0
2017-06-26T00:29:37.463Z,0
2017-06-26T00:30:37.370Z,0
2017-06-26T00:31:37.462Z,0
2017-06-26T00:32:37.377Z,0
2017-06-26T00:33:37.372Z,0
2017-06-26T00:34:37.459Z,0
2017-06-26T00:35:37.374Z,0
2017-06-26T00:36:37.454Z,0
2017-06-26T00:37:37.371Z,0
2017-06-26T00:38:37.468Z,0
2017-06-26T00:39:37.465Z,0
2017-06-26T00:40:37.379Z,0
2017-06-26T00:41:37.444Z,0
2017-06-26T00:42:37.466Z,0
2017-06-26T00:43:37.432Z,0
2017-06-26T00:44:37.382Z,0
2017-06-26T00:45:37.442Z,0
2017-06-26T00:46:37.378Z,0
2017-06-26T00:47:37.468Z,0
2017-06-26T00:48:37.381Z,0
2017-06-26T00:49:37.372Z,0
2017-06-26T00:50:37.380Z,0
2017-06-26T00:51:37.376Z,0
2017-06-26T00:52:37.470Z,0
2017-06-26T00:53:37.425Z,0
2017-06-26T00:54:37.475Z,0
2017-06-26T00:55:37.388Z,0
2017-06-26T00:56:37.427Z,0
2017-06-26T00:57:37.523Z,0
2017-06-26T00:58:37.455Z,0
2017-06-26T00:59:37.451Z,0
2017-06-26T01:00:37.481Z,0
2017-06-26T01:01:37.459Z,0
2017-06-26T01:02:37.386Z,0
2017-06-26T01:03:37.475Z,0
2017-06-26T01:04:37.457Z,0
2017-06-26T01:05:37.483Z,0
2017-06-26T01:06:37.393Z,0
2017-06-26T01:07:37.384Z,0
2017-06-26T01:08:37.456Z,0
2017-06-26T01:09:37.481Z,0
2017-06-26T01:10:37.481Z,0
2017-06-26T01:11:37.394Z,0
2017-06-26T01:12:37.395Z,0
2017-06-26T01:13:37.398Z,0
2017-06-26T01:14:37.488Z,0
2017-06-26T01:15:37.397Z,0
2017-06-26T01:16:37.439Z,0
2017-06-26T01:17:37.482Z,0
2017-06-26T01:18:37.402Z,0
2017-06-26T01:19:37.479Z,0
2017-06-26T01:20:37.484Z,0
2017-06-26T01:21:37.484Z,0
2017-06-26T01:22:37.484Z,0
2017-06-26T01:23:37.398Z,0
2017-06-26T01:24:37.479Z,0
2017-06-26T01:25:37.483Z,0
2017-06-26T01:26:37.485Z,0
2017-06-26T01:27:37.407Z,0
2017-06-26T01:28:37.399Z,0
2017-06-26T01:29:37.401Z,0
2017-06-26T01:30:37.478Z,0
2017-06-26T01:31:37.404Z,0
2017-06-26T01:32:37.468Z,0
2017-06-26T01:33:37.398Z,0
2017-06-26T01:34:37.479Z,0
2017-06-26T01:35:37.487Z,0
2017-06-26T01:36:37.400Z,0
2017-06-26T01:37:37.401Z,0
2017-06-26T01:38:37.487Z,0
2017-06-26T01:39:37.490Z,0
2017-06-26T01:40:37.409Z,0
2017-06-26T01:41:37.413Z,0
2017-06-26T01:42:37.501Z,0
2017-06-26T01:43:37.504Z,0
2017-06-26T01:44:37.404Z,0
2017-06-26T01:45:37.491Z,0
2017-06-26T01:46:37.501Z,0
2017-06-26T01:47:37.420Z,0
2017-06-26T01:48:37.415Z,0
2017-06-26T01:49:37.495Z,0
2017-06-26T01:50:37.480Z,0
2017-06-26T01:51:37.494Z,0
2017-06-26T01:52:37.462Z,0
2017-06-26T01:53:37.485Z,0
2017-06-26T01:54:37.454Z,0
2017-06-26T01:55:37.513Z,0
2017-06-26T01:56:37.503Z,0
2017-06-26T01:57:37.504Z,0
2017-06-26T01:58:37.504Z,0
2017-06-26T01:59:37.419Z,0
2017-06-26T02:00:37.429Z,0
2017-06-26T02:01:37.503Z,0
2017-06-26T02:02:37.470Z,0
2017-06-26T02:03:37.510Z,0
2017-06-26T02:04:37.422Z,0
2017-06-26T02:05:37.517Z,0
2017-06-26T02:06:37.425Z,0
2017-06-26T02:07:37.510Z,0
2017-06-26T02:08:37.543Z,0
2017-06-26T02:09:37.512Z,0
2017-06-26T02:10:37.506Z,0
2017-06-26T02:11:37.511Z,0
2017-06-26T02:12:37.432Z,0
2017-06-26T02:13:37.426Z,0
2017-06-26T02:14:37.431Z,0
2017-06-26T02:15:37.518Z,4
2017-06-26T02:17:37.515Z,4
2017-06-26T02:18:37.514Z,4
2017-06-26T02:19:37.513Z,4
2017-06-26T02:20:37.523Z,4
2017-06-26T02:21:37.521Z,4
2017-06-26T02:22:37.480Z,4
2017-06-26T02:23:37.477Z,0
2017-06-26T02:24:37.431Z,4
2017-06-26T02:25:37.501Z,4
2017-06-26T02:26:37.521Z,4
2017-06-26T02:27:37.432Z,4
2017-06-26T02:28:37.437Z,8
2017-06-26T02:29:37.427Z,8
2017-06-26T02:30:37.434Z,12
2017-06-26T02:31:37.539Z,16
2017-06-26T02:32:37.522Z,16
2017-06-26T02:33:37.518Z,16
2017-06-26T02:34:37.438Z,20
2017-06-26T02:35:37.432Z,20
2017-06-26T02:36:37.524Z,28
2017-06-26T02:37:37.531Z,28
2017-06-26T02:38:37.506Z,36
2017-06-26T02:39:37.539Z,40
2017-06-26T02:40:37.529Z,44
2017-06-26T02:41:37.527Z,44
2017-06-26T02:42:37.528Z,44
2017-06-26T02:43:37.437Z,48
2017-06-26T02:44:37.539Z,52
2017-06-26T02:45:37.447Z,60
2017-06-26T02:46:37.542Z,68
2017-06-26T02:47:37.529Z,76
2017-06-26T02:48:37.532Z,80
2017-06-26T02:49:37.439Z,84
2017-06-26T02:50:37.542Z,92
2017-06-26T02:51:37.446Z,96
2017-06-26T02:52:37.450Z,88
2017-06-26T02:53:37.536Z,104
2017-06-26T02:54:37.517Z,116
2017-06-26T02:55:37.496Z,116
2017-06-26T02:56:37.522Z,124
2017-06-26T02:57:37.448Z,144
2017-06-26T02:58:37.457Z,164
2017-06-26T02:59:37.452Z,184
2017-06-26T03:00:37.484Z,188
2017-06-26T03:01:37.458Z,196
2017-06-26T03:02:37.540Z,200
2017-06-26T03:03:37.459Z,196
2017-06-26T03:04:37.547Z,192
2017-06-26T03:05:37.543Z,192
2017-06-26T03:06:37.456Z,184
2017-06-26T03:07:37.542Z,180
2017-06-26T03:08:37.462Z,180
2017-06-26T03:09:37.544Z,196
2017-06-26T03:10:37.460Z,180
2017-06-26T03:11:37.527Z,176
2017-06-26T03:12:37.546Z,192
2017-06-26T03:13:37.542Z,224
2017-06-26T03:14:37.457Z,292
2017-06-26T03:15:37.527Z,344
2017-06-26T03:16:37.553Z,380
2017-06-26T03:17:37.462Z,416
2017-06-26T03:18:37.551Z,428
2017-06-26T03:19:37.528Z,416
2017-06-26T03:20:37.467Z,436
2017-06-26T03:21:37.553Z,380
2017-06-26T03:22:37.462Z,316
2017-06-26T03:23:37.462Z,268
2017-06-26T03:24:37.559Z,216
2017-06-26T03:25:37.555Z,188
2017-06-26T03:26:37.514Z,176
2017-06-26T03:27:37.606Z,168
2017-06-26T03:28:37.532Z,192
2017-06-26T03:29:37.473Z,196
2017-06-26T03:30:37.563Z,168
2017-06-26T03:31:37.559Z,160
2017-06-26T03:32:37.475Z,164
2017-06-26T03:33:37.558Z,172
2017-06-26T03:34:37.563Z,176
2017-06-26T03:35:37.560Z,188
2017-06-26T03:36:37.472Z,208
2017-06-26T03:37:37.565Z,244
2017-06-26T03:38:37.538Z,280
2017-06-26T03:39:37.537Z,344
2017-06-26T03:40:37.556Z,392
2017-06-26T03:41:37.521Z,404
2017-06-26T03:42:37.506Z,424
2017-06-26T03:43:37.568Z,420
2017-06-26T03:44:37.574Z,424
2017-06-26T03:45:37.568Z,420
2017-06-26T03:46:37.569Z,416
2017-06-26T03:47:37.565Z,480
2017-06-26T03:48:37.568Z,612
2017-06-26T03:49:37.546Z,756
2017-06-26T03:50:37.573Z,952
2017-06-26T03:51:37.487Z,1036
2017-06-26T03:52:37.488Z,1092
2017-06-26T03:53:37.528Z,1208
2017-06-26T03:54:37.547Z,1372
2017-06-26T03:55:37.487Z,1500
2017-06-26T03:56:37.569Z,1580
2017-06-26T03:57:37.488Z,1464
2017-06-26T03:58:37.574Z,1420
2017-06-26T03:59:37.573Z,1268
2017-06-26T04:00:37.575Z,1176
2017-06-26T04:01:37.694Z,1252
2017-06-26T04:02:37.577Z,1364
2017-06-26T04:03:37.539Z,1448
2017-06-26T04:04:37.492Z,1508
2017-06-26T04:05:37.569Z,1580
2017-06-26T04:06:37.591Z,1600
2017-06-26T04:07:37.571Z,1388
2017-06-26T04:08:37.576Z,1264
2017-06-26T04:09:37.536Z,1360
2017-06-26T04:10:37.580Z,1332
2017-06-26T04:11:37.578Z,1400
2017-06-26T04:12:37.493Z,1544
2017-06-26T04:13:37.577Z,1984
2017-06-26T04:14:37.493Z,2024
2017-06-26T04:15:37.584Z,1924
2017-06-26T04:16:37.586Z,2028
2017-06-26T04:17:37.493Z,1904
2017-06-26T04:18:37.587Z,2044
2017-06-26T04:19:37.524Z,2200
2017-06-26T04:20:37.523Z,2180
2017-06-26T04:21:37.499Z,2332
2017-06-26T04:22:37.501Z,2592
2017-06-26T04:23:37.582Z,2932
2017-06-26T04:24:37.582Z,3824
2017-06-26T04:25:37.557Z,4460
2017-06-26T04:26:37.585Z,5188
2017-06-26T04:27:37.530Z,5272
2017-06-26T04:28:37.559Z,4972
2017-06-26T04:29:37.590Z,4292
2017-06-26T04:30:37.584Z,3612
2017-06-26T04:31:37.590Z,3852
2017-06-26T04:32:37.498Z,4696
2017-06-26T04:33:37.508Z,5364
2017-06-26T04:34:37.589Z,5204
2017-06-26T04:35:37.506Z,4068
2017-06-26T04:36:37.592Z,4004
2017-06-26T04:37:37.588Z,4776
2017-06-26T04:38:37.593Z,5108
2017-06-26T04:39:37.529Z,5748
2017-06-26T04:40:37.538Z,5832
2017-06-26T04:41:37.597Z,5168
2017-06-26T04:42:37.596Z,5296
2017-06-26T04:43:37.599Z,5740
2017-06-26T04:44:37.588Z,5400
2017-06-26T04:45:37.571Z,4940
2017-06-26T04:46:37.592Z,4784
2017-06-26T04:47:37.590Z,3832
2017-06-26T04:48:37.690Z,3372
2017-06-26T04:49:37.595Z,3908
2017-06-26T04:50:37.589Z,4568
2017-06-26T04:51:37.603Z,4816
2017-06-26T04:52:37.517Z,4296
2017-06-26T04:53:37.577Z,3672
2017-06-26T04:54:37.518Z,3580
2017-06-26T04:55:37.516Z,4000
2017-06-26T04:56:37.609Z,4092
2017-06-26T04:57:37.604Z,3764
2017-06-26T04:58:37.522Z,3820
2017-06-26T04:59:37.607Z,3992
2017-06-26T05:00:37.608Z,4008
2017-06-26T05:01:37.598Z,3740
2017-06-26T05:02:37.610Z,4268
2017-06-26T05:03:37.607Z,5472
2017-06-26T05:04:37.516Z,5452
2017-06-26T05:05:37.608Z,5180
2017-06-26T05:06:37.611Z,5604
2017-06-26T05:07:37.606Z,5748
2017-06-26T05:08:37.529Z,5536
2017-06-26T05:09:37.566Z,5916
2017-06-26T05:10:37.617Z,5976
2017-06-26T05:11:37.587Z,6132
2017-06-26T05:12:37.525Z,6336
2017-06-26T05:13:37.609Z,6460
2017-06-26T05:14:37.572Z,5420
2017-06-26T05:15:37.616Z,4384
2017-06-26T05:16:37.570Z,4184
2017-06-26T05:17:37.529Z,4688
2017-06-26T05:18:37.526Z,4764
2017-06-26T05:19:37.620Z,3960
2017-06-26T05:20:37.607Z,3412
2017-06-26T05:21:37.528Z,3628
2017-06-26T05:22:37.620Z,3412
2017-06-26T05:23:37.619Z,3052
2017-06-26T05:24:37.617Z,2364
2017-06-26T05:25:37.621Z,1836
2017-06-26T05:26:37.610Z,2108
2017-06-26T05:27:37.623Z,2192
2017-06-26T05:28:37.618Z,1880
2017-06-26T05:29:37.592Z,1792
2017-06-26T05:30:37.618Z,1964
2017-06-26T05:31:37.626Z,1856
2017-06-26T05:32:37.531Z,1728
2017-06-26T05:33:37.624Z,1660
2017-06-26T05:34:37.619Z,1568
2017-06-26T05:35:37.582Z,1552
2017-06-26T05:36:37.605Z,1644
2017-06-26T05:37:37.536Z,1744
2017-06-26T05:38:37.703Z,1900
2017-06-26T05:39:37.628Z,1976
2017-06-26T05:40:37.545Z,2128
2017-06-26T05:41:37.605Z,2120
2017-06-26T05:42:37.569Z,2132
2017-06-26T05:43:37.540Z,2516
2017-06-26T05:44:37.677Z,2852
2017-06-26T05:45:37.543Z,2648
2017-06-26T05:46:37.617Z,2052
2017-06-26T05:47:37.631Z,1776
2017-06-26T05:48:37.635Z,1784
2017-06-26T05:49:37.680Z,1856
2017-06-26T05:50:37.548Z,1916
2017-06-26T05:51:37.553Z,2096
2017-06-26T05:52:37.547Z,2208
2017-06-26T05:53:37.635Z,2448
2017-06-26T05:54:37.629Z,3016
2017-06-26T05:55:37.659Z,3012
2017-06-26T05:56:37.632Z,3016
2017-06-26T05:57:37.554Z,3136
2017-06-26T05:58:37.557Z,3228
2017-06-26T05:59:37.544Z,3324
2017-06-26T06:00:37.550Z,3740
2017-06-26T06:01:37.553Z,4532
2017-06-26T06:02:37.643Z,5708
2017-06-26T06:03:37.561Z,7072
2017-06-26T06:04:37.553Z,8176
2017-06-26T06:05:37.559Z,9088
2017-06-26T06:06:37.546Z,10920
2017-06-26T06:07:37.630Z,13020
2017-06-26T06:08:37.644Z,14372
2017-06-26T06:09:37.617Z,14476
2017-06-26T06:10:37.621Z,14636
2017-06-26T06:11:37.635Z,15804
2017-06-26T06:12:37.737Z,17496
2017-06-26T06:13:37.647Z,17148
2017-06-26T06:14:37.650Z,15688
2017-06-26T06:15:37.641Z,13608
2017-06-26T06:16:37.651Z,12112
2017-06-26T06:17:37.641Z,11556
2017-06-26T06:18:37.558Z,11744
2017-06-26T06:19:37.707Z,12156
2017-06-26T06:20:37.565Z,11644
2017-06-26T06:21:37.592Z,11324
2017-06-26T06:22:37.650Z,11992
2017-06-26T06:23:37.568Z,12744
2017-06-26T06:24:37.654Z,13512
2017-06-26T06:25:37.654Z,14384
2017-06-26T06:26:37.569Z,14540
2017-06-26T06:27:37.557Z,13404
2017-06-26T06:28:37.627Z,12396
2017-06-26T06:29:37.651Z,11420
2017-06-26T06:30:37.660Z,10204
2017-06-26T06:31:37.656Z,9432
2017-06-26T06:32:37.656Z,9232
2017-06-26T06:33:37.664Z,9816
2017-06-26T06:34:37.632Z,10432
2017-06-26T06:35:37.609Z,10340
2017-06-26T06:36:37.641Z,9740
2017-06-26T06:37:37.576Z,8924
2017-06-26T06:38:37.662Z,8516
2017-06-26T06:39:37.661Z,8972
2017-06-26T06:40:37.600Z,9468
2017-06-26T06:41:37.652Z,9572
2017-06-26T06:42:37.663Z,9180
2017-06-26T06:43:37.638Z,8332
2017-06-26T06:44:37.582Z,7636
2017-06-26T06:45:37.666Z,7776
2017-06-26T06:46:37.662Z,9084
2017-06-26T06:47:37.665Z,9856
2017-06-26T06:48:37.669Z,9796
2017-06-26T06:49:37.667Z,9744
2017-06-26T06:50:37.652Z,9496
2017-06-26T06:51:37.578Z,8480
2017-06-26T06:52:37.663Z,8280
2017-06-26T06:53:37.663Z,9472
2017-06-26T06:54:37.585Z,10848
2017-06-26T06:55:37.673Z,11156
2017-06-26T06:56:37.585Z,11860
2017-06-26T06:57:37.573Z,14280
2017-06-26T06:58:37.659Z,16544
2017-06-26T06:59:37.666Z,18152
2017-06-26T07:00:37.681Z,19220
2017-06-26T07:01:37.705Z,20284
2017-06-26T07:02:37.673Z,22144
2017-06-26T07:03:37.677Z,21504
2017-06-26T07:04:37.674Z,19312
2017-06-26T07:05:37.663Z,18988
2017-06-26T07:06:37.679Z,21024
2017-06-26T07:07:37.674Z,22272
2017-06-26T07:08:37.673Z,21280
2017-06-26T07:09:37.677Z,20768
2017-06-26T07:10:37.585Z,21248
2017-06-26T07:11:37.680Z,21600
2017-06-26T07:12:37.679Z,21440
2017-06-26T07:13:37.669Z,19996
2017-06-26T07:14:37.593Z,18908
2017-06-26T07:15:37.683Z,18276
2017-06-26T07:16:37.600Z,17420
2017-06-26T07:17:37.651Z,17012
2017-06-26T07:18:37.603Z,14964
2017-06-26T07:19:37.604Z,12944
2017-06-26T07:20:37.683Z,11748
2017-06-26T07:21:37.642Z,11464
2017-06-26T07:22:37.692Z,11344
2017-06-26T07:23:37.600Z,11148
2017-06-26T07:24:37.603Z,10028
2017-06-26T07:25:37.593Z,9020
2017-06-26T07:26:37.686Z,9324
2017-06-26T07:27:37.681Z,9988
2017-06-26T07:28:37.689Z,9944
2017-06-26T07:29:37.627Z,9952
2017-06-26T07:30:37.691Z,10664
2017-06-26T07:31:37.599Z,11300
2017-06-26T07:32:37.598Z,11496
2017-06-26T07:33:37.605Z,11536
2017-06-26T07:34:37.698Z,11768
2017-06-26T07:35:37.675Z,12184
2017-06-26T07:36:37.742Z,13436
2017-06-26T07:37:37.687Z,14988
2017-06-26T07:38:37.700Z,16592
2017-06-26T07:39:37.690Z,18184
2017-06-26T07:40:37.699Z,19172
2017-06-26T07:41:37.687Z,19972
2017-06-26T07:42:37.639Z,23264
2017-06-26T07:43:37.689Z,25760
2017-06-26T07:44:37.687Z,24960
2017-06-26T07:45:37.733Z,23168
2017-06-26T07:46:37.699Z,20896
2017-06-26T07:47:37.664Z,17480
2017-06-26T07:48:37.611Z,14840
2017-06-26T07:49:37.703Z,13800
2017-06-26T07:50:37.703Z,13508
2017-06-26T07:51:37.609Z,13500
2017-06-26T07:52:37.609Z,14372
2017-06-26T07:53:37.702Z,14328
2017-06-26T07:54:37.620Z,14260
2017-06-26T07:55:37.695Z,15464
2017-06-26T07:56:37.611Z,16368
2017-06-26T07:57:37.620Z,16548
2017-06-26T07:58:37.647Z,17256
2017-06-26T07:59:37.696Z,18060
2017-06-26T08:00:37.623Z,18848
2017-06-26T08:01:37.620Z,18940
2017-06-26T08:02:37.711Z,18128
2017-06-26T08:03:37.611Z,18220
2017-06-26T08:04:37.699Z,19328
2017-06-26T08:05:37.714Z,19480
2017-06-26T08:06:37.710Z,19348
2017-06-26T08:07:37.614Z,20736
2017-06-26T08:08:37.711Z,21376
2017-06-26T08:09:37.706Z,21728
2017-06-26T08:10:37.706Z,23072
2017-06-26T08:11:37.710Z,25504
2017-06-26T08:12:37.718Z,25152
2017-06-26T08:13:37.713Z,24256
2017-06-26T08:14:37.701Z,23520
2017-06-26T08:15:37.719Z,21568
2017-06-26T08:16:37.711Z,18848
2017-06-26T08:17:37.710Z,18040
2017-06-26T08:18:37.628Z,17788
2017-06-26T08:19:37.721Z,17360
2017-06-26T08:20:37.634Z,15952
2017-06-26T08:21:37.710Z,15772
2017-06-26T08:22:37.718Z,17344
2017-06-26T08:23:37.718Z,18148
2017-06-26T08:24:37.626Z,18400
2017-06-26T08:25:37.768Z,19436
2017-06-26T08:26:37.636Z,20236
2017-06-26T08:27:37.720Z,21280
2017-06-26T08:28:37.721Z,22848
2017-06-26T08:29:37.638Z,23456
2017-06-26T08:30:37.709Z,22944
2017-06-26T08:31:37.720Z,23168
2017-06-26T08:32:37.692Z,25440
2017-06-26T08:33:37.639Z,27264
2017-06-26T08:34:37.638Z,26656
2017-06-26T08:35:37.727Z,27360
2017-06-26T08:36:37.727Z,29600
2017-06-26T08:37:37.722Z,28448
2017-06-26T08:38:37.726Z,26400
2017-06-26T08:39:37.726Z,27872
2017-06-26T08:40:37.633Z,29952
2017-06-26T08:41:37.731Z,28544
2017-06-26T08:42:37.634Z,27360
2017-06-26T08:43:37.697Z,28576
2017-06-26T08:44:37.645Z,28896
2017-06-26T08:45:37.646Z,27392
2017-06-26T08:46:37.699Z,27648
2017-06-26T08:47:37.734Z,29760
2017-06-26T08:48:37.637Z,30656
2017-06-26T08:49:37.735Z,30592
2017-06-26T08:50:37.734Z,31744
2017-06-26T08:51:37.720Z,33696
2017-06-26T08:52:37.651Z,35168
2017-06-26T08:53:37.735Z,35136
2017-06-26T08:54:37.731Z,34528
2017-06-26T08:55:37.678Z,35104
2017-06-26T08:56:37.653Z,36640
2017-06-26T08:57:37.725Z,37856
2017-06-26T08:58:37.740Z,38240
2017-06-26T08:59:37.741Z,38336
2017-06-26T09:00:37.683Z,37600
2017-06-26T09:01:37.655Z,36672
2017-06-26T09:02:37.650Z,36512
2017-06-26T09:03:37.651Z,37088
2017-06-26T09:04:37.660Z,38016
2017-06-26T09:05:37.650Z,37248
2017-06-26T09:06:37.685Z,36416
2017-06-26T09:07:37.657Z,35936
2017-06-26T09:08:37.793Z,35520
2017-06-26T09:09:37.749Z,35424
2017-06-26T09:10:37.739Z,35648
2017-06-26T09:11:37.713Z,36064
2017-06-26T09:12:37.654Z,37024
2017-06-26T09:13:37.750Z,38240
2017-06-26T09:14:37.654Z,39456
2017-06-26T09:15:37.749Z,39872
2017-06-26T09:16:37.657Z,38880
2017-06-26T09:17:37.738Z,38016
2017-06-26T09:18:37.706Z,38656
2017-06-26T09:19:37.655Z,40448
2017-06-26T09:20:37.741Z,43680
2017-06-26T09:21:37.724Z,47616
2017-06-26T09:22:37.710Z,50464
2017-06-26T09:23:37.750Z,53344
2017-06-26T09:24:37.755Z,57760
2017-06-26T09:25:37.744Z,63040
2017-06-26T09:26:37.725Z,67392
2017-06-26T09:27:37.670Z,69120
2017-06-26T09:28:37.726Z,65056
2017-06-26T09:29:37.749Z,61888
2017-06-26T09:30:37.747Z,62752
2017-06-26T09:31:37.749Z,69792
2017-06-26T09:32:37.664Z,80000
2017-06-26T09:33:37.694Z,84480
2017-06-26T09:34:37.732Z,117536
2017-06-26T09:35:37.668Z,136064
2017-06-26T09:36:37.741Z,91232
2017-06-26T09:37:37.717Z,88096
2017-06-26T09:38:37.764Z,77184
2017-06-26T09:39:37.745Z,101568
2017-06-26T09:40:37.702Z,71584
2017-06-26T09:41:37.730Z,75360
2017-06-26T09:42:37.752Z,80064
2017-06-26T09:43:37.762Z,170208
2017-06-26T09:45:37.733Z,94816
2017-06-26T09:46:37.822Z,87168
2017-06-26T09:47:37.671Z,84448
2017-06-26T09:48:37.672Z,71040
2017-06-26T09:49:37.767Z,60864
2017-06-26T09:50:37.676Z,47392
2017-06-26T09:51:37.754Z,39360
2017-06-26T09:52:37.761Z,35488
2017-06-26T09:53:37.680Z,31072
2017-06-26T09:54:37.681Z,29312
2017-06-26T09:55:37.773Z,33088
2017-06-26T09:56:37.787Z,37184
2017-06-26T09:57:37.681Z,46560
2017-06-26T09:58:37.710Z,52512
2017-06-26T09:59:37.741Z,54016
2017-06-26T10:00:37.773Z,52512
2017-06-26T10:01:37.762Z,47616
2017-06-26T10:02:37.776Z,49792
2017-06-26T10:03:37.773Z,59904
2017-06-26T10:04:37.778Z,64896
2017-06-26T10:05:37.775Z,87104
2017-06-26T10:06:37.689Z,192736
2017-06-26T10:07:37.749Z,156352
2017-06-26T10:08:37.714Z,88576
2017-06-26T10:09:37.778Z,184832
2017-06-26T10:10:37.686Z,85440
2017-06-26T10:11:37.762Z,75648
2017-06-26T10:12:37.782Z,69216
2017-06-26T10:13:37.770Z,75488
2017-06-26T10:14:37.784Z,81664
2017-06-26T10:15:37.785Z,110560
2017-06-26T10:16:37.695Z,92960
2017-06-26T10:17:37.693Z,178752
2017-06-26T10:18:37.782Z,79904
2017-06-26T10:19:37.706Z,70912
2017-06-26T10:20:37.697Z,87552
2017-06-26T10:21:37.788Z,78208
2017-06-26T10:22:37.779Z,38016
2017-06-26T10:23:37.781Z,32256
2017-06-26T10:24:37.695Z,35904
2017-06-26T10:25:37.700Z,38752
2017-06-26T10:26:37.776Z,47424
2017-06-26T10:27:37.759Z,53440
2017-06-26T10:28:37.726Z,63616
2017-06-26T10:29:37.790Z,51104
2017-06-26T10:30:37.782Z,48640
2017-06-26T10:31:37.784Z,53984
2017-06-26T10:32:37.784Z,32608
2017-06-26T10:33:37.793Z,28128
2017-06-26T10:34:37.707Z,31168
2017-06-26T10:35:37.789Z,34336
2017-06-26T10:36:37.794Z,35200
2017-06-26T10:37:37.783Z,37888
2017-06-26T10:38:37.795Z,38208
2017-06-26T10:39:37.796Z,37664
2017-06-26T10:40:37.703Z,36512
2017-06-26T10:41:37.800Z,38272
2017-06-26T10:42:37.696Z,42240
2017-06-26T10:43:37.735Z,45056
2017-06-26T10:44:37.707Z,42848
2017-06-26T10:45:37.796Z,41248
2017-06-26T10:46:37.820Z,40224
2017-06-26T10:47:37.800Z,37408
2017-06-26T10:48:37.710Z,38208
2017-06-26T10:49:37.709Z,46016
2017-06-26T10:50:37.719Z,122656
2017-06-26T10:51:37.800Z,197440
2017-06-26T10:52:37.802Z,197728
2017-06-26T10:53:37.794Z,74336
2017-06-26T10:54:37.792Z,62112
2017-06-26T10:55:37.716Z,116032
2017-06-26T10:56:37.770Z,102720
2017-06-26T10:57:37.790Z,121184
2017-06-26T10:58:37.745Z,117632
2017-06-26T10:59:37.723Z,125344
2017-06-26T11:00:37.729Z,179232
2017-06-26T11:01:37.714Z,90624
2017-06-26T11:02:37.825Z,71360
2017-06-26T11:03:37.811Z,71840
2017-06-26T11:04:37.794Z,66080
2017-06-26T11:05:37.805Z,51040
2017-06-26T11:06:37.803Z,43264
2017-06-26T11:07:37.792Z,43328
2017-06-26T11:08:37.724Z,42592
2017-06-26T11:09:37.722Z,39648
2017-06-26T11:10:37.815Z,35232
2017-06-26T11:11:37.719Z,33856
2017-06-26T11:12:37.718Z,32160
2017-06-26T11:13:37.810Z,33408
2017-06-26T11:14:37.725Z,33632
2017-06-26T11:15:37.718Z,29152
2017-06-26T11:16:37.721Z,25184
2017-06-26T11:17:37.785Z,22784
2017-06-26T11:18:37.720Z,20320
2017-06-26T11:19:37.717Z,17092
2017-06-26T11:20:37.738Z,14224
2017-06-26T11:21:37.732Z,11692
2017-06-26T11:22:37.800Z,10156
2017-06-26T11:23:37.825Z,9952
2017-06-26T11:24:37.725Z,11012
2017-06-26T11:25:37.732Z,13404
2017-06-26T11:26:37.817Z,16124
2017-06-26T11:27:37.733Z,17948
2017-06-26T11:28:37.734Z,19128
2017-06-26T11:29:37.723Z,19544
2017-06-26T11:30:37.740Z,20768
2017-06-26T11:31:37.765Z,22080
2017-06-26T11:32:37.726Z,23808
2017-06-26T11:33:37.762Z,25408
2017-06-26T11:34:37.825Z,27616
2017-06-26T11:35:37.830Z,31264
2017-06-26T11:36:37.731Z,36288
2017-06-26T11:37:37.816Z,42144
2017-06-26T11:38:37.822Z,48832
2017-06-26T11:39:37.735Z,56544
2017-06-26T11:40:37.734Z,60704
2017-06-26T11:41:37.745Z,60704
2017-06-26T11:42:37.744Z,59904
2017-06-26T11:43:37.733Z,52800
2017-06-26T11:44:37.801Z,44960
2017-06-26T11:45:37.743Z,38528
2017-06-26T11:46:37.735Z,33856
2017-06-26T11:47:37.829Z,32288
2017-06-26T11:48:37.839Z,32192
2017-06-26T11:49:37.834Z,32352
2017-06-26T11:50:37.827Z,32032
2017-06-26T11:51:37.826Z,32160
2017-06-26T11:52:37.756Z,32224
2017-06-26T11:53:37.748Z,31840
2017-06-26T11:54:37.805Z,32000
2017-06-26T11:55:37.833Z,32576
2017-06-26T11:56:37.832Z,33952
2017-06-26T11:57:37.840Z,34976
2017-06-26T11:58:37.837Z,34976
2017-06-26T11:59:37.759Z,36064
2017-06-26T12:00:37.810Z,38464
2017-06-26T12:01:37.745Z,43392
2017-06-26T12:02:37.759Z,96928
2017-06-26T12:03:37.763Z,70624
2017-06-26T12:04:37.841Z,75744
2017-06-26T12:05:37.752Z,74176
2017-06-26T12:06:37.760Z,91680
2017-06-26T12:07:37.816Z,191776
2017-06-26T12:08:37.842Z,184928
2017-06-26T12:09:37.750Z,153632
2017-06-26T12:10:37.838Z,126048
2017-06-26T12:11:37.849Z,152928
2017-06-26T12:12:37.841Z,154368
2017-06-26T12:13:37.764Z,152000
2017-06-26T12:14:37.759Z,179488
2017-06-26T12:15:37.754Z,187168
2017-06-26T12:16:37.852Z,147488
2017-06-26T12:17:37.840Z,138688
2017-06-26T12:18:37.770Z,43200
2017-06-26T12:19:37.764Z,33408
2017-06-26T12:20:37.853Z,24800
2017-06-26T12:21:37.768Z,20576
2017-06-26T12:22:37.818Z,19400
2017-06-26T12:23:37.853Z,21088
2017-06-26T12:24:37.838Z,24256
2017-06-26T12:25:37.761Z,27360
2017-06-26T12:26:37.764Z,30496
2017-06-26T12:27:37.848Z,35200
2017-06-26T12:28:37.765Z,38528
2017-06-26T12:29:37.848Z,40224
2017-06-26T12:30:37.857Z,42720
2017-06-26T12:31:37.856Z,45920
2017-06-26T12:32:37.902Z,51744
2017-06-26T12:33:37.770Z,55904
2017-06-26T12:34:37.776Z,58624
2017-06-26T12:35:37.857Z,59872
2017-06-26T12:36:37.853Z,61888
2017-06-26T12:37:37.776Z,164992
2017-06-26T12:38:37.856Z,164544
2017-06-26T12:39:37.865Z,158208
2017-06-26T12:40:37.862Z,61056
2017-06-26T12:41:37.859Z,55296
2017-06-26T12:42:37.782Z,65216
2017-06-26T12:43:37.873Z,122784
2017-06-26T12:44:37.859Z,138752
2017-06-26T12:45:37.835Z,66400
2017-06-26T12:46:37.773Z,66880
2017-06-26T12:47:37.864Z,66688
2017-06-26T12:48:37.860Z,64928
2017-06-26T12:49:37.865Z,82944
2017-06-26T12:50:37.782Z,151680
2017-06-26T12:51:37.779Z,75072
2017-06-26T12:52:37.874Z,174592
2017-06-26T12:53:37.782Z,165888
2017-06-26T12:54:37.784Z,98016
2017-06-26T12:55:37.857Z,165120
2017-06-26T12:56:37.902Z,44704
2017-06-26T12:57:37.779Z,37600
2017-06-26T12:58:37.870Z,37184
2017-06-26T12:59:37.781Z,36928
2017-06-26T13:00:37.780Z,38560
2017-06-26T13:01:37.872Z,85184
2017-06-26T13:02:37.872Z,159712
2017-06-26T13:03:37.861Z,156672
2017-06-26T13:04:37.818Z,161216
2017-06-26T13:05:37.786Z,157440
2017-06-26T13:06:37.784Z,151008
2017-06-26T13:07:37.870Z,154176
2017-06-26T13:08:37.882Z,153952
2017-06-26T13:09:37.818Z,156736
2017-06-26T13:10:37.875Z,161248
2017-06-26T13:11:37.848Z,101152
2017-06-26T13:12:37.791Z,44032
2017-06-26T13:13:37.787Z,46336
2017-06-26T13:14:37.883Z,60864
2017-06-26T13:15:37.880Z,153184
2017-06-26T13:16:37.796Z,48544
2017-06-26T13:17:37.884Z,42624
2017-06-26T13:18:37.789Z,40352
2017-06-26T13:19:37.876Z,37632
2017-06-26T13:20:37.800Z,38624
2017-06-26T13:21:37.791Z,152448
2017-06-26T13:22:37.888Z,149984
2017-06-26T13:23:37.868Z,154720